KTPH

Tonopah Airport

Tonopah, Nevada, USA
METAR KTPH 191156Z AUTO 36009KT 10SM CLR 08/M06 A2996 RMK AO2 SLP083 T00831056 56004 $
Observed Flight Rules
Sep-19 @ 11:56 UTC (58 minutes ago) Visual Flight Rules
Wind Visibility Clouds
360° at 9 knots 10 miles
  • Clear skies
Temperatures Readings
Current 8°C / 46°F
Dewpoint -6°C / 21°F
Humidity 37%
Altimeter 29.96" Hg
Pressure 1008.3 hPa
Elevation 1652
METAR KTPH 191156Z AUTO 36009KT 10SM CLR 08/M06 A2996 RMK AO2 SLP083 T00831056 56004 $
Observed Flight Rules
Sep-19 @ 11:56 UTC
(58 minutes ago)
VFR
Wind Visibility
360° at 9 knots 10 miles
Clouds
  • Clear skies
Temperature Dewpoint
8°C / 46°F -6°C / 21°F
Humidity Altimeter Pressure
37% 29.96" Hg 1008.3 hPa